Time;durP1;ratioP1;P1;durP2;ratioP2;P2;SDS_P1;SDS_P2;PMS_P1;PMS_P2;Temp;Humidity;BMP_temperature;BMP_pressure;BME280_temperature;BME280_humidity;BME280_pressure;Samples;Min_cycle;Max_cycle;Signal;HPM_P1;HPM_P2
2023/05/12 00:01:41;;;;;;;9.48;5.30;;;;;;;11.76;100.00;101721.97;4922224;29;20199;-42
2023/05/12 00:04:06;;;;;;;5.75;4.95;;;;;;;11.79;100.00;101729.97;4927865;28;20204;-42
2023/05/12 00:06:32;;;;;;;5.50;5.00;;;;;;;11.73;100.00;101727.44;4921763;29;20183;-43
2023/05/12 00:08:58;;;;;;;5.50;5.07;;;;;;;11.78;100.00;101721.94;4921948;29;20219;-42
2023/05/12 00:11:23;;;;;;;4.90;4.47;;;;;;;11.80;100.00;101725.47;4925659;29;20186;-44
2023/05/12 00:13:48;;;;;;;8.23;5.55;;;;;;;11.75;100.00;101723.78;4923792;28;20191;-43
2023/05/12 00:16:16;;;;;;;5.35;4.80;;;;;;;11.77;100.00;101725.56;4919064;29;20698;-44
2023/05/12 00:18:41;;;;;;;8.35;5.05;;;;;;;11.67;100.00;101720.44;4922805;29;20678;-44
2023/05/12 00:21:07;;;;;;;7.03;6.00;;;;;;;11.63;100.00;101715.19;4921576;29;20200;-43
2023/05/12 00:23:33;;;;;;;7.68;5.65;;;;;;;11.54;100.00;101719.03;4925843;29;20254;-42
2023/05/12 00:25:58;;;;;;;7.10;5.55;;;;;;;11.67;100.00;101722.25;4925716;29;20183;-43
2023/05/12 00:28:24;;;;;;;10.52;6.28;;;;;;;11.66;100.00;101718.69;4922022;29;20521;-42
2023/05/12 00:30:49;;;;;;;9.73;5.40;;;;;;;11.73;100.00;101724.75;4919660;29;20176;-42
2023/05/12 00:33:16;;;;;;;6.32;5.07;;;;;;;11.83;100.00;101720.91;4926746;29;20210;-41
2023/05/12 00:35:44;;;;;;;5.93;5.28;;;;;;;11.89;100.00;101718.03;4921251;29;20722;-41
2023/05/12 00:38:11;;;;;;;8.90;5.38;;;;;;;11.84;100.00;101716.41;4921538;29;20184;-43
2023/05/12 00:40:36;;;;;;;7.40;5.22;;;;;;;11.82;100.00;101716.44;4912749;29;20659;-42
2023/05/12 00:43:03;;;;;;;8.45;5.70;;;;;;;11.82;100.00;101716.44;4926712;29;20208;-41
2023/05/12 00:45:29;;;;;;;8.68;5.32;;;;;;;11.84;100.00;101722.63;4932395;29;20213;-41
2023/05/12 00:47:55;;;;;;;5.35;4.85;;;;;;;11.91;100.00;101726.94;4927220;29;20255;-41
2023/05/12 00:50:21;;;;;;;7.65;5.28;;;;;;;11.86;100.00;101714.56;4925585;29;20639;-42
2023/05/12 00:52:48;;;;;;;6.80;5.00;;;;;;;11.89;100.00;101714.47;4927803;23;20214;-46
2023/05/12 00:55:14;;;;;;;7.95;5.35;;;;;;;11.90;100.00;101709.06;4937109;29;20321;-48
2023/05/12 00:57:41;;;;;;;8.88;5.45;;;;;;;11.88;100.00;101708.25;4946953;29;20705;-47
2023/05/12 01:00:07;;;;;;;5.60;4.47;;;;;;;11.85;100.00;101708.31;4951400;29;20229;-46
2023/05/12 01:02:35;;;;;;;5.65;5.07;;;;;;;11.88;100.00;101712.72;4939832;28;20256;-48
2023/05/12 01:05:02;;;;;;;8.73;5.10;;;;;;;11.94;100.00;101720.63;4944271;29;20662;-48
2023/05/12 01:07:31;;;;;;;6.03;4.90;;;;;;;11.87;100.00;101716.28;4941926;29;20183;-49
2023/05/12 01:09:57;;;;;;;6.07;4.93;;;;;;;11.86;100.00;101726.16;4951362;28;20179;-46
2023/05/12 01:12:25;;;;;;;4.95;4.45;;;;;;;11.87;100.00;101721.66;4960663;28;20577;-47
2023/05/12 01:14:52;;;;;;;7.75;4.88;;;;;;;11.80;100.00;101720.09;4943988;29;20658;-47
2023/05/12 01:17:22;;;;;;;5.88;5.10;;;;;;;11.79;100.00;101724.59;4960360;28;20571;-46
2023/05/12 01:19:52;;;;;;;7.05;4.78;;;;;;;11.83;100.00;101726.25;4957399;28;20210;-48
2023/05/12 01:22:18;;;;;;;5.75;4.80;;;;;;;11.79;100.00;101727.28;4954440;28;20309;-47
2023/05/12 01:24:56;;;;;;;7.65;4.57;;;;;;;11.74;100.00;101732.78;4958716;28;20183;-46
2023/05/12 01:27:25;;;;;;;5.18;4.30;;;;;;;11.79;100.00;101729.97;4957339;28;20219;-47
2023/05/12 01:29:51;;;;;;;7.75;4.80;;;;;;;11.73;100.00;101733.69;4950668;29;20190;-48
2023/05/12 01:32:18;;;;;;;7.35;4.63;;;;;;;11.70;100.00;101739.16;4949325;28;20213;-45
2023/05/12 01:34:44;;;;;;;8.73;4.90;;;;;;;11.67;100.00;101725.81;4943959;29;20605;-46
2023/05/12 01:37:10;;;;;;;7.80;4.82;;;;;;;11.65;100.00;101733.00;4943296;28;20194;-48
2023/05/12 01:39:36;;;;;;;6.85;4.68;;;;;;;11.72;100.00;101739.13;4958828;28;20218;-46
2023/05/12 01:42:04;;;;;;;7.60;4.88;;;;;;;11.73;100.00;101740.88;4955120;28;20231;-46
2023/05/12 01:44:29;;;;;;;7.45;4.93;;;;;;;11.73;100.00;101749.78;4960798;28;20191;-46
2023/05/12 01:46:55;;;;;;;7.72;4.80;;;;;;;11.67;100.00;101744.59;4943528;28;20194;-48
2023/05/12 01:49:21;;;;;;;7.10;4.78;;;;;;;11.67;100.00;101749.97;4959573;28;20195;-46
2023/05/12 01:51:48;;;;;;;5.38;4.65;;;;;;;11.66;100.00;101755.41;4958678;28;20262;-47
2023/05/12 01:54:17;;;;;;;8.18;5.13;;;;;;;11.54;100.00;101754.81;4954684;28;20254;-48
2023/05/12 01:56:42;;;;;;;6.85;5.15;;;;;;;11.56;100.00;101754.75;4941098;29;20289;-45
2023/05/12 01:59:08;;;;;;;5.45;4.78;;;;;;;11.60;100.00;101756.44;4957176;28;20191;-47
2023/05/12 02:01:35;;;;;;;8.77;5.35;;;;;;;11.57;100.00;101763.69;4960325;28;20722;-48
2023/05/12 02:04:03;;;;;;;6.30;5.28;;;;;;;11.54;100.00;101757.50;4958065;28;20304;-45
2023/05/12 02:06:30;;;;;;;6.68;5.07;;;;;;;11.55;100.00;101763.75;4945546;29;20282;-46
2023/05/12 02:08:56;;;;;;;6.10;4.40;;;;;;;11.58;100.00;101766.31;4939531;28;20688;-47
2023/05/12 02:11:22;;;;;;;7.53;4.18;;;;;;;11.60;100.00;101763.63;4956869;28;20190;-46
2023/05/12 02:13:47;;;;;;;4.30;3.90;;;;;;;11.65;100.00;101767.91;4950726;28;20199;-47
2023/05/12 02:16:13;;;;;;;4.75;4.32;;;;;;;11.64;100.00;101776.03;4943474;29;20183;-46
2023/05/12 02:18:40;;;;;;;6.07;4.13;;;;;;;11.63;100.00;101776.94;4942507;28;20187;-47
2023/05/12 02:21:05;;;;;;;6.13;3.83;;;;;;;11.64;100.00;101784.09;4962989;28;20221;-48
2023/05/12 02:23:31;;;;;;;5.60;4.28;;;;;;;11.61;100.00;101779.69;4957809;28;20270;-47
2023/05/12 02:25:57;;;;;;;5.53;4.30;;;;;;;11.60;100.00;101779.72;4946015;28;20278;-47
2023/05/12 02:28:22;;;;;;;5.22;4.57;;;;;;;11.59;100.00;101780.63;4952363;28;20226;-46
2023/05/12 02:30:51;;;;;;;6.30;4.60;;;;;;;11.53;100.00;101779.88;4940289;29;20202;-46
2023/05/12 02:33:20;;;;;;;4.80;4.35;;;;;;;11.55;100.00;101779.84;4956874;28;20206;-45
2023/05/12 02:35:46;;;;;;;4.68;4.28;;;;;;;11.53;100.00;101782.56;4939812;28;20234;-47
2023/05/12 02:38:12;;;;;;;4.32;3.92;;;;;;;11.47;100.00;101789.91;4939072;29;20645;-47
2023/05/12 02:40:38;;;;;;;7.45;4.60;;;;;;;11.39;100.00;101787.44;4938710;29;20306;-48
2023/05/12 02:43:04;;;;;;;4.65;4.22;;;;;;;11.42;100.00;101786.47;4937534;29;20306;-47
2023/05/12 02:45:30;;;;;;;4.97;4.45;;;;;;;11.45;100.00;101787.25;4957914;28;20182;-47
2023/05/12 02:47:56;;;;;;;6.25;5.22;;;;;;;11.37;100.00;101785.69;4940875;29;20186;-47
2023/05/12 02:50:21;;;;;;;5.75;5.00;;;;;;;11.20;100.00;101778.09;4940915;29;20179;-46
2023/05/12 02:52:47;;;;;;;5.55;4.53;;;;;;;11.21;100.00;101783.41;4942123;29;20708;-47
2023/05/12 02:55:13;;;;;;;6.93;4.70;;;;;;;11.27;100.00;101790.41;4937940;29;20198;-45
2023/05/12 02:57:39;;;;;;;4.68;4.28;;;;;;;11.25;100.00;101794.94;4939444;29;20187;-48
2023/05/12 03:00:05;;;;;;;5.65;4.85;;;;;;;11.21;100.00;101796.81;4934502;29;20320;-46
2023/05/12 03:02:34;;;;;;;5.75;4.55;;;;;;;11.22;100.00;101795.91;4925451;29;20628;-48
2023/05/12 03:05:01;;;;;;;4.82;4.40;;;;;;;11.29;100.00;101804.69;4942113;28;20179;-48
2023/05/12 03:07:26;;;;;;;4.28;3.88;;;;;;;11.30;100.00;101801.06;4940204;29;20278;-47
2023/05/12 03:09:52;;;;;;;6.47;4.78;;;;;;;11.31;100.00;101800.16;4941738;29;20209;-47
2023/05/12 03:12:19;;;;;;;4.50;4.18;;;;;;;11.32;100.00;101799.22;4924754;29;20261;-47
2023/05/12 03:14:44;;;;;;;5.20;4.65;;;;;;;11.25;100.00;101793.13;4939761;29;20560;-47
2023/05/12 03:17:10;;;;;;;5.10;4.70;;;;;;;11.22;100.00;101797.72;4939977;29;20555;-46
2023/05/12 03:19:36;;;;;;;5.10;4.43;;;;;;;11.19;100.00;101801.34;4940731;29;20195;-47
2023/05/12 03:22:02;;;;;;;5.57;4.63;;;;;;;11.17;100.00;101802.28;4921462;28;20222;-46
2023/05/12 03:24:28;;;;;;;7.05;4.75;;;;;;;11.20;100.00;101805.78;4926711;29;20189;-47
2023/05/12 03:26:53;;;;;;;4.43;4.10;;;;;;;11.22;100.00;101803.09;4941485;29;20194;-46
2023/05/12 03:29:20;;;;;;;4.97;4.57;;;;;;;11.22;100.00;101803.09;4938890;29;20741;-47
2023/05/12 03:31:45;;;;;;;6.95;4.93;;;;;;;11.25;100.00;101803.88;4941610;28;20191;-48
2023/05/12 03:34:12;;;;;;;5.18;4.68;;;;;;;11.24;100.00;101810.16;4924710;29;20197;-46
2023/05/12 03:36:38;;;;;;;6.97;5.32;;;;;;;11.19;100.00;101806.69;4922426;29;20741;-46
2023/05/12 03:39:03;;;;;;;5.78;5.10;;;;;;;11.18;100.00;101813.00;4940130;29;20195;-46
2023/05/12 03:41:31;;;;;;;5.15;4.15;;;;;;;11.20;100.00;101812.97;4918886;29;20222;-46
2023/05/12 03:43:56;;;;;;;5.43;4.93;;;;;;;11.22;100.00;101805.75;4939815;29;20194;-47
2023/05/12 03:46:22;;;;;;;6.40;4.63;;;;;;;11.19;100.00;101808.50;4923644;29;20281;-46
2023/05/12 03:48:48;;;;;;;5.32;4.82;;;;;;;11.19;100.00;101811.19;4941993;29;20262;-46
2023/05/12 03:51:13;;;;;;;5.40;4.90;;;;;;;11.17;100.00;101813.03;4930368;29;20277;-45
2023/05/12 03:53:43;;;;;;;7.07;5.00;;;;;;;11.15;100.00;101815.78;4942077;28;20222;-46
2023/05/12 03:56:10;;;;;;;4.82;4.40;;;;;;;11.22;100.00;101808.44;4937020;29;20203;-48
2023/05/12 03:58:35;;;;;;;5.10;4.60;;;;;;;11.27;100.00;101833.34;4944351;29;20210;-47
2023/05/12 04:01:01;;;;;;;9.75;5.28;;;;;;;11.21;100.00;101820.06;4936872;29;20215;-47
2023/05/12 04:03:27;;;;;;;6.43;5.43;;;;;;;11.18;100.00;101826.41;4937780;28;20210;-47
2023/05/12 04:06:00;;;;;;;5.47;4.97;;;;;;;11.25;100.00;101824.44;4916399;29;20207;-47
2023/05/12 04:08:26;;;;;;;6.03;5.25;;;;;;;11.18;100.00;101826.41;4939098;29;20524;-48
2023/05/12 04:11:00;;;;;;;6.13;5.60;;;;;;;11.27;100.00;101831.53;4934247;29;20191;-48
2023/05/12 04:13:27;;;;;;;5.97;5.40;;;;;;;11.27;100.00;101826.16;4938146;29;20314;-48
2023/05/12 04:15:56;;;;;;;6.13;5.55;;;;;;;11.33;100.00;101823.34;4919839;29;20203;-48
2023/05/12 04:18:23;;;;;;;8.32;6.07;;;;;;;11.27;100.00;101831.53;4940548;29;20658;-48
2023/05/12 04:20:48;;;;;;;7.32;6.10;;;;;;;11.31;100.00;101818.94;4921953;29;20211;-48
2023/05/12 04:23:14;;;;;;;8.75;6.43;;;;;;;11.27;100.00;101828.84;4935642;28;20262;-47
2023/05/12 04:25:41;;;;;;;7.13;5.93;;;;;;;11.39;100.00;101832.13;4940400;29;20191;-46
2023/05/12 04:28:08;;;;;;;12.38;6.10;;;;;;;11.37;100.00;101840.25;4921760;29;20195;-46
2023/05/12 04:30:33;;;;;;;8.45;5.95;;;;;;;11.43;100.00;101839.19;4921070;29;20203;-46
2023/05/12 04:33:00;;;;;;;9.20;5.97;;;;;;;11.49;100.00;101844.41;4942328;28;20202;-46
2023/05/12 04:35:26;;;;;;;8.23;5.85;;;;;;;11.55;100.00;101837.09;4932616;29;20187;-47
2023/05/12 04:37:52;;;;;;;7.07;6.00;;;;;;;11.53;100.00;101840.72;4939088;29;20279;-47
2023/05/12 04:40:18;;;;;;;5.95;5.20;;;;;;;11.74;100.00;101839.25;4939543;29;20301;-46
2023/05/12 04:42:43;;;;;;;7.03;5.55;;;;;;;11.91;100.00;101850.47;4935527;29;20635;-47
2023/05/12 04:45:10;;;;;;;8.77;6.13;;;;;;;12.03;100.00;101851.06;4939671;29;20179;-46
2023/05/12 04:47:36;;;;;;;5.40;4.90;;;;;;;12.14;100.00;101848.97;4922700;29;20249;-46
2023/05/12 04:50:02;;;;;;;7.68;6.20;;;;;;;12.18;100.00;101847.03;4930887;29;21154;-48
2023/05/12 04:52:30;;;;;;;8.90;5.88;;;;;;;12.30;100.00;101858.31;4923120;29;20677;-46
2023/05/12 04:54:56;;;;;;;7.63;5.63;;;;;;;12.44;100.00;101857.03;4939798;29;20179;-47
2023/05/12 04:57:22;;;;;;;8.57;5.55;;;;;;;12.47;100.00;101854.28;4939622;29;20206;-47
2023/05/12 04:59:48;;;;;;;5.95;4.88;;;;;;;12.71;100.00;101858.91;4929061;29;20254;-48
2023/05/12 05:02:14;;;;;;;9.82;5.93;;;;;;;12.71;100.00;101856.22;4941381;28;20226;-48
2023/05/12 05:04:39;;;;;;;6.30;5.70;;;;;;;12.76;100.00;101865.03;4937836;29;20187;-47
2023/05/12 05:07:05;;;;;;;9.30;5.68;;;;;;;12.90;99.91;101861.00;4927792;29;20546;-47
2023/05/12 05:09:31;;;;;;;5.60;5.10;;;;;;;13.04;99.62;101849.84;4938599;29;20191;-47
2023/05/12 05:11:57;;;;;;;6.32;5.20;;;;;;;13.17;98.78;101862.84;4923728;28;20677;-46
2023/05/12 05:14:22;;;;;;;6.70;5.55;;;;;;;13.04;97.62;101864.16;4937269;29;20245;-49
2023/05/12 05:16:48;;;;;;;6.40;4.90;;;;;;;13.33;97.09;101865.06;4937411;29;20285;-48
2023/05/12 05:19:14;;;;;;;6.28;4.95;;;;;;;13.26;96.10;101869.72;4939521;29;20199;-47
2023/05/12 05:21:40;;;;;;;6.43;5.35;;;;;;;13.34;94.77;101866.84;4923880;29;20223;-46
2023/05/12 05:24:06;;;;;;;7.00;5.30;;;;;;;13.23;93.52;101859.06;4915530;29;20317;-46
2023/05/12 05:26:32;;;;;;;8.35;5.50;;;;;;;13.23;92.60;101863.56;4941875;29;20191;-47
2023/05/12 05:28:57;;;;;;;9.30;5.50;;;;;;;13.24;91.72;101868.03;4935518;28;20218;-49
2023/05/12 05:31:24;;;;;;;7.72;5.38;;;;;;;13.22;91.65;101865.38;4942783;29;20187;-47
2023/05/12 05:33:50;;;;;;;10.20;5.50;;;;;;;13.08;91.01;101864.97;4924378;29;20240;-46
2023/05/12 05:36:16;;;;;;;12.65;5.28;;;;;;;13.35;90.61;101876.66;4923844;29;20669;-49
2023/05/12 05:38:41;;;;;;;6.18;5.00;;;;;;;13.36;90.10;101876.63;4927323;29;20195;-46
2023/05/12 05:41:07;;;;;;;7.70;5.47;;;;;;;13.29;90.00;101872.34;4941357;29;20219;-47
2023/05/12 05:43:33;;;;;;;6.90;5.00;;;;;;;13.49;89.66;101871.69;4939338;29;20223;-47
2023/05/12 05:45:59;;;;;;;7.85;4.93;;;;;;;13.68;89.32;101884.53;4926892;29;20220;-46
2023/05/12 05:48:25;;;;;;;6.65;5.10;;;;;;;13.71;88.01;101877.22;4923185;29;20274;-48
2023/05/12 05:50:52;;;;;;;7.75;4.50;;;;;;;13.73;87.86;101877.16;4941040;29;20249;-48
2023/05/12 05:53:19;;;;;;;5.97;5.22;;;;;;;13.75;86.94;101883.38;4940918;29;20226;-47
2023/05/12 05:55:47;;;;;;;5.70;4.60;;;;;;;13.65;86.83;101879.25;4944446;29;20331;-48
2023/05/12 05:58:14;;;;;;;6.65;4.28;;;;;;;13.73;86.45;101885.25;4944419;29;20195;-47
2023/05/12 06:00:40;;;;;;;4.57;3.92;;;;;;;13.88;85.27;101886.53;4925849;29;20202;-48
2023/05/12 06:03:05;;;;;;;8.55;4.28;;;;;;;13.77;85.23;101890.50;4936553;29;20227;-48
2023/05/12 06:05:31;;;;;;;5.40;4.65;;;;;;;13.62;85.50;101893.69;4946582;29;20195;-46
2023/05/12 06:07:56;;;;;;;6.55;4.60;;;;;;;13.72;85.95;101895.13;4942699;29;20681;-47
2023/05/12 06:10:22;;;;;;;5.85;4.90;;;;;;;13.70;85.42;101907.78;4943103;29;20401;-48
2023/05/12 06:12:49;;;;;;;7.45;4.95;;;;;;;13.70;84.62;101899.69;4944153;28;20213;-45
2023/05/12 06:15:14;;;;;;;9.10;5.30;;;;;;;13.56;85.17;101908.25;4941283;29;20191;-47
2023/05/12 06:17:41;;;;;;;6.45;4.43;;;;;;;13.56;85.05;101902.00;4939600;29;20190;-47
2023/05/12 06:20:07;;;;;;;6.47;4.82;;;;;;;13.54;85.03;101906.53;4923401;29;20718;-47
2023/05/12 06:22:33;;;;;;;5.82;4.80;;;;;;;13.69;85.33;101906.03;4938562;28;20269;-47
2023/05/12 06:24:59;;;;;;;7.20;4.78;;;;;;;13.58;85.05;101905.53;4925773;29;20262;-47
2023/05/12 06:27:25;;;;;;;9.23;5.13;;;;;;;13.63;85.35;101914.31;4942772;29;20254;-47
2023/05/12 06:29:51;;;;;;;6.40;5.32;;;;;;;13.51;85.31;101918.31;4937274;29;20598;-49
2023/05/12 06:32:16;;;;;;;7.40;5.22;;;;;;;13.59;85.43;101918.91;4942196;29;20207;-46
2023/05/12 06:34:42;;;;;;;7.25;5.47;;;;;;;13.60;85.66;101914.44;4924417;29;20190;-46
2023/05/12 06:37:07;;;;;;;6.38;4.90;;;;;;;13.66;85.91;101933.03;4940912;29;20641;-47
2023/05/12 06:39:33;;;;;;;6.72;5.28;;;;;;;13.50;85.64;101921.91;4925533;29;20190;-47
2023/05/12 06:41:59;;;;;;;6.63;4.80;;;;;;;13.65;85.59;101930.44;4922517;29;20188;-47
2023/05/12 06:44:25;;;;;;;7.60;5.68;;;;;;;13.74;85.32;101935.50;4943392;29;20294;-45
2023/05/12 06:46:51;;;;;;;7.28;5.18;;;;;;;13.78;85.48;101929.06;4941323;29;20546;-45
2023/05/12 06:49:17;;;;;;;5.63;4.40;;;;;;;13.94;85.26;101927.59;4937990;29;20197;-47
2023/05/12 06:51:42;;;;;;;6.57;4.70;;;;;;;14.31;84.48;101930.81;4941929;29;20266;-47
2023/05/12 06:54:10;;;;;;;6.57;5.05;;;;;;;14.38;84.26;101925.13;4942147;28;20218;-45
2023/05/12 06:56:36;;;;;;;7.05;4.90;;;;;;;14.56;83.79;101930.81;4941991;29;20186;-47
2023/05/12 06:59:02;;;;;;;9.45;4.70;;;;;;;14.77;82.98;101919.22;4945885;29;20190;-45
2023/05/12 07:01:29;;;;;;;9.02;4.70;;;;;;;14.98;81.91;101909.41;4942206;29;20223;-48
2023/05/12 07:03:54;;;;;;;6.20;4.72;;;;;;;15.32;80.41;101910.75;4925278;29;20623;-45
2023/05/12 07:06:20;;;;;;;7.55;4.82;;;;;;;15.90;78.36;101907.47;4941286;29;20194;-44
2023/05/12 07:08:47;;;;;;;5.25;4.43;;;;;;;16.37;76.54;101901.75;4941268;29;20570;-45
2023/05/12 07:11:18;;;;;;;4.78;4.32;;;;;;;16.38;75.45;101887.31;4941188;29;20191;-45
2023/05/12 07:13:48;;;;;;;5.35;4.10;;;;;;;16.62;74.12;101887.13;4938715;29;20203;-50
2023/05/12 07:16:14;;;;;;;5.00;3.80;;;;;;;16.65;73.05;101881.56;4938023;29;20199;-43
2023/05/12 07:18:40;;;;;;;4.80;4.20;;;;;;;17.04;71.60;101870.69;4939184;29;20195;-45
2023/05/12 07:21:05;;;;;;;6.55;4.10;;;;;;;16.73;71.73;101887.50;4940303;29;20599;-45
2023/05/12 07:23:31;;;;;;;8.77;4.35;;;;;;;17.38;71.09;101885.28;4924017;29;20211;-44
2023/05/12 07:25:57;;;;;;;6.22;4.20;;;;;;;17.55;70.58;101875.41;4932839;29;20203;-45
2023/05/12 07:28:22;;;;;;;5.15;4.18;;;;;;;17.97;69.97;101883.19;4940484;29;20746;-49
2023/05/12 07:30:48;;;;;;;7.25;4.40;;;;;;;17.60;68.23;101874.25;4943919;29;20186;-44
2023/05/12 07:33:14;;;;;;;7.32;4.00;;;;;;;17.84;67.24;101858.59;4940685;29;20203;-44
2023/05/12 07:35:39;;;;;;;4.22;3.85;;;;;;;18.24;66.56;101864.59;4941907;29;20183;-45
2023/05/12 07:38:05;;;;;;;5.25;3.83;;;;;;;17.49;67.80;101863.06;4943047;29;20195;-46
2023/05/12 07:40:30;;;;;;;7.90;4.65;;;;;;;16.81;71.61;101901.56;4939540;29;20218;-42
2023/05/12 07:42:56;;;;;;;5.75;4.82;;;;;;;15.95;74.79;101927.06;4944130;28;20206;-42
2023/05/12 07:45:23;;;;;;;5.78;4.43;;;;;;;16.12;76.46;101936.28;4941867;29;20188;-46
2023/05/12 07:47:49;;;;;;;3.75;3.45;;;;;;;16.96;76.19;101935.16;4939844;29;20742;-44
2023/05/12 07:50:18;;;;;;;8.77;4.10;;;;;;;16.85;72.77;101908.59;4937461;29;20388;-43
2023/05/12 07:52:51;;;;;;;6.72;3.97;;;;;;;17.38;70.02;101903.34;4942724;28;20589;-45
2023/05/12 07:55:19;;;;;;;8.00;3.97;;;;;;;18.04;69.02;101889.19;4924446;29;20200;-42
2023/05/12 07:57:44;;;;;;;8.23;4.03;;;;;;;18.15;69.10;101896.75;4939228;29;20680;-45
2023/05/12 08:00:11;;;;;;;7.07;4.28;;;;;;;18.09;68.51;101893.41;4939833;29;20207;-46
2023/05/12 08:02:40;;;;;;;8.82;3.85;;;;;;;18.50;68.12;101901.16;4940837;28;20222;-50
2023/05/12 08:05:08;;;;;;;14.70;3.88;;;;;;;18.79;68.26;101906.00;4941055;29;20199;-49
2023/05/12 08:07:34;;;;;;;8.38;3.92;;;;;;;18.46;69.07;101918.56;4940425;29;20227;-48
2023/05/12 08:10:01;;;;;;;6.63;3.92;;;;;;;17.93;69.50;101916.88;4940497;29;20233;-50
2023/05/12 08:12:27;;;;;;;7.93;3.95;;;;;;;18.11;68.78;101917.75;4944415;29;20206;-45
2023/05/12 08:14:53;;;;;;;8.02;4.10;;;;;;;18.10;68.73;101919.59;4942833;29;20266;-45
2023/05/12 08:17:18;;;;;;;4.70;3.45;;;;;;;19.18;68.09;101919.16;4940761;29;20200;-48
2023/05/12 08:19:44;;;;;;;4.45;3.40;;;;;;;18.84;67.13;101907.47;4941083;29;20193;-44
2023/05/12 08:22:09;;;;;;;6.20;4.05;;;;;;;18.99;66.35;101910.28;4936631;29;20205;-46
2023/05/12 08:24:35;;;;;;;6.05;3.70;;;;;;;19.30;64.91;101899.41;4941564;29;20190;-47
2023/05/12 08:27:00;;;;;;;8.25;3.40;;;;;;;18.66;64.55;101893.06;4941871;29;20278;-44
2023/05/12 08:29:28;;;;;;;5.40;3.92;;;;;;;18.77;64.91;101900.59;4941043;29;20198;-43
2023/05/12 08:31:54;;;;;;;6.25;4.10;;;;;;;19.35;65.04;101901.88;4942420;29;20255;-45
2023/05/12 08:34:20;;;;;;;6.50;3.70;;;;;;;19.39;64.04;101891.69;4940767;29;20190;-44
2023/05/12 08:36:46;;;;;;;7.22;3.80;;;;;;;19.43;64.16;101898.72;4938324;29;20190;-47
2023/05/12 08:39:11;;;;;;;4.93;3.45;;;;;;;20.05;61.96;101891.41;4940344;29;20671;-46
2023/05/12 08:41:51;;;;;;;6.88;3.30;;;;;;;20.24;59.92;101865.75;4941244;29;20210;-44
2023/05/12 08:44:18;;;;;;;4.93;3.20;;;;;;;19.96;59.24;101862.91;4939531;29;20224;-43
2023/05/12 08:46:46;;;;;;;4.68;3.03;;;;;;;19.64;60.71;101878.41;4938740;28;20198;-43
2023/05/12 08:49:16;;;;;;;8.73;3.30;;;;;;;19.15;61.03;101884.00;4935842;29;20190;-46
2023/05/12 08:51:43;;;;;;;5.85;3.00;;;;;;;19.03;61.13;101891.03;4936844;29;20183;-44
2023/05/12 08:54:11;;;;;;;7.47;3.35;;;;;;;18.56;60.03;101877.34;4935776;29;20697;-45
2023/05/12 08:56:40;;;;;;;6.13;2.88;;;;;;;19.90;60.59;101890.47;4941694;29;20190;-43
2023/05/12 08:59:08;;;;;;;6.85;3.30;;;;;;;19.71;58.12;101866.22;4942322;29;20205;-43
2023/05/12 09:01:34;;;;;;;6.20;3.30;;;;;;;19.99;57.75;101871.84;4936600;29;20313;-43
2023/05/12 09:04:00;;;;;;;9.13;3.20;;;;;;;19.43;56.41;101847.94;4934767;29;20202;-48
2023/05/12 09:06:26;;;;;;;4.82;3.17;;;;;;;19.41;56.79;101857.16;4945148;29;20661;-48
2023/05/12 09:08:52;;;;;;;6.18;3.50;;;;;;;19.73;56.96;101863.44;4941420;29;20182;-44
2023/05/12 09:11:19;;;;;;;10.38;3.60;;;;;;;19.58;57.22;101864.31;4944467;28;20261;-43
2023/05/12 09:13:59;;;;;;;4.57;2.90;;;;;;;18.96;56.44;101865.19;4943200;28;20575;-45
2023/05/12 09:16:28;;;;;;;6.80;2.80;;;;;;;19.90;55.39;101859.69;4939850;29;20241;-44
2023/05/12 09:18:56;;;;;;;6.18;3.17;;;;;;;19.79;54.30;101848.56;4944729;29;20225;-42
2023/05/12 09:21:22;;;;;;;8.65;3.22;;;;;;;19.37;54.15;101840.16;4942571;29;20281;-44
2023/05/12 09:24:07;;;;;;;4.07;3.00;;;;;;;19.64;53.26;101840.34;4939459;29;20273;-44
2023/05/12 09:26:54;;;;;;;6.72;2.85;;;;;;;19.52;52.39;101835.63;4944909;29;20246;-48
2023/05/12 09:29:20;;;;;;;8.55;3.17;;;;;;;19.74;51.96;101828.00;4942176;29;20178;-43
2023/05/12 09:31:52;;;;;;;6.53;3.08;;;;;;;20.02;51.47;101831.72;4943260;28;20190;-48
2023/05/12 09:34:19;;;;;;;7.07;2.80;;;;;;;19.75;49.58;101807.97;4941871;29;20242;-48
2023/05/12 09:36:55;;;;;;;5.18;2.88;;;;;;;19.99;48.78;101812.00;4949675;29;20221;-48
2023/05/12 09:39:20;;;;;;;5.03;2.75;;;;;;;20.12;47.38;101783.94;4943330;29;20230;-47
2023/05/12 09:41:46;;;;;;;6.03;3.17;;;;;;;19.99;47.12;101785.69;4942262;29;20202;-49
2023/05/12 09:44:17;;;;;;;5.07;2.58;;;;;;;19.96;47.37;101794.00;4945809;29;20286;-48
2023/05/12 09:46:43;;;;;;;4.15;2.67;;;;;;;20.05;47.23;101789.84;4941899;29;20183;-46
2023/05/12 09:49:09;;;;;;;4.50;2.40;;;;;;;20.26;46.74;101787.63;4940135;29;20191;-46
2023/05/12 09:51:34;;;;;;;3.33;2.40;;;;;;;20.55;46.63;101794.78;4945868;29;20603;-46
2023/05/12 09:54:00;;;;;;;5.72;2.80;;;;;;;20.09;45.45;101775.94;4941996;28;20717;-52
2023/05/12 09:56:27;;;;;;;4.88;2.42;;;;;;;20.27;44.96;101775.75;4941755;29;20174;-46
2023/05/12 09:58:55;;;;;;;4.13;2.47;;;;;;;20.16;44.54;101762.84;4942959;29;20182;-45
2023/05/12 10:01:22;;;;;;;3.25;2.35;;;;;;;20.46;44.92;101770.00;4944915;29;20210;-45
2023/05/12 10:03:50;;;;;;;7.57;2.78;;;;;;;20.30;43.84;101756.50;4945173;28;20209;-45
2023/05/12 10:06:25;;;;;;;4.10;2.50;;;;;;;20.20;43.15;101752.63;4941992;29;20187;-44
2023/05/12 10:09:09;;;;;;;5.10;2.30;;;;;;;20.21;43.49;101744.38;4940963;29;20225;-50
2023/05/12 10:11:35;;;;;;;6.50;2.67;;;;;;;20.26;43.28;101744.94;4942988;29;20194;-50
2023/05/12 10:14:01;;;;;;;6.47;2.55;;;;;;;20.44;42.92;101742.00;4942752;29;20214;-48
2023/05/12 10:16:27;;;;;;;4.20;2.17;;;;;;;20.30;43.09;101756.50;4941042;28;20587;-47
2023/05/12 10:18:54;;;;;;;4.35;2.80;;;;;;;19.68;43.15;101746.75;4942294;29;20270;-49
2023/05/12 10:21:20;;;;;;;5.97;2.70;;;;;;;19.93;43.31;101762.44;4922717;29;20704;-49
2023/05/12 10:23:47;;;;;;;5.93;2.60;;;;;;;19.85;43.55;101774.78;4936164;29;20210;-50
2023/05/12 10:26:13;;;;;;;5.63;2.78;;;;;;;20.14;44.31;101781.13;4941477;29;20191;-45
2023/05/12 10:28:39;;;;;;;5.88;2.97;;;;;;;20.35;44.02;101776.13;4944191;29;20176;-46
2023/05/12 10:31:06;;;;;;;4.47;2.55;;;;;;;20.44;43.94;101771.94;4943279;29;20182;-45
2023/05/12 10:33:32;;;;;;;5.80;2.83;;;;;;;20.23;44.24;101775.09;4941650;28;20206;-49
2023/05/12 10:35:57;;;;;;;5.40;2.60;;;;;;;20.60;43.55;101771.84;4939914;29;20665;-49
2023/05/12 10:38:24;;;;;;;5.88;2.67;;;;;;;20.54;43.69;101784.00;4938311;29;20218;-43
2023/05/12 10:40:58;;;;;;;3.63;2.65;;;;;;;20.09;43.14;101756.91;4940027;29;20210;-46
2023/05/12 10:43:26;;;;;;;4.20;2.70;;;;;;;20.37;44.74;101793.25;4941235;29;20221;-46
2023/05/12 10:46:18;;;;;;;6.22;2.58;;;;;;;20.27;43.47;101778.47;4944562;29;20624;-45
2023/05/12 10:49:05;;;;;;;4.50;2.63;;;;;;;20.32;43.05;101776.34;4940288;29;20187;-43
2023/05/12 10:51:33;;;;;;;3.90;2.47;;;;;;;20.20;43.39;101774.41;4943677;29;20198;-46
2023/05/12 10:54:06;;;;;;;5.03;2.63;;;;;;;20.35;43.54;101784.28;4940899;28;20210;-50
2023/05/12 10:56:38;;;;;;;3.15;2.35;;;;;;;20.50;44.35;101787.88;4939945;29;20508;-46
2023/05/12 10:59:16;;;;;;;5.53;2.42;;;;;;;20.27;44.96;101801.13;4941923;29;20190;-47
2023/05/12 11:02:04;;;;;;;3.90;2.67;;;;;;;20.09;45.39;101819.47;4944211;29;20354;-45
2023/05/12 11:04:48;;;;;;;3.28;2.78;;;;;;;20.65;45.10;101810.56;4940745;29;20644;-47
2023/05/12 11:07:18;;;;;;;7.30;3.10;;;;;;;20.26;44.64;101793.91;4944071;29;20222;-48
2023/05/12 11:09:46;;;;;;;6.28;2.85;;;;;;;20.44;45.29;101816.38;4938131;29;20673;-45
2023/05/12 11:12:12;;;;;;;4.75;2.97;;;;;;;20.18;44.72;101798.97;4942433;29;20210;-47
2023/05/12 11:14:40;;;;;;;9.57;2.67;;;;;;;20.38;46.29;101823.09;4939397;29;20654;-46
2023/05/12 11:17:05;;;;;;;7.65;3.22;;;;;;;20.37;47.41;101828.63;4941018;29;20568;-48
2023/05/12 11:19:32;;;;;;;6.68;3.22;;;;;;;20.40;45.12;101809.41;4941548;29;20194;-43
2023/05/12 11:22:06;;;;;;;6.32;2.85;;;;;;;20.55;45.66;101810.22;4944570;28;20586;-47